createdAt,value
2022-08-17T00:00:42.598Z,91.85
2022-08-17T00:01:24.162Z,91.74
2022-08-17T00:02:26.267Z,91.64
2022-08-17T00:03:22.720Z,91.54
2022-08-17T00:04:22.573Z,91.74
2022-08-17T00:05:22.440Z,91.64
2022-08-17T00:06:22.807Z,91.64
2022-08-17T00:07:22.359Z,92.14
2022-08-17T00:08:22.375Z,92.14
2022-08-17T00:09:22.492Z,93.05
2022-08-17T00:10:22.564Z,93.05
2022-08-17T00:11:22.750Z,92.85
2022-08-17T00:12:41.997Z,92.85
2022-08-17T00:13:23.265Z,93.05
2022-08-17T00:14:22.265Z,92.96
2022-08-17T00:15:22.253Z,92.76
2022-08-17T00:16:22.581Z,92.69
2022-08-17T00:17:23.270Z,92.80
2022-08-17T00:19:06.483Z,92.90
2022-08-17T00:19:23.250Z,93.51
2022-08-17T00:20:23.401Z,93.51
2022-08-17T00:22:36.078Z,94.21
2022-08-17T00:23:32.413Z,94.21
2022-08-17T00:24:32.336Z,94.01
2022-08-17T00:25:32.385Z,94.11
2022-08-17T00:26:45.137Z,94.01
2022-08-17T00:27:32.328Z,93.71
2022-08-17T00:28:33.276Z,93.81
2022-08-17T00:29:32.286Z,93.71
2022-08-17T00:30:50.891Z,93.91
2022-08-17T00:31:33.702Z,93.60
2022-08-17T00:33:15.012Z,93.60
2022-08-17T00:33:39.468Z,93.71
2022-08-17T00:34:32.260Z,93.71
2022-08-17T00:35:32.662Z,93.71
2022-08-17T00:36:32.360Z,94.01
2022-08-17T00:37:32.174Z,93.91
2022-08-17T00:38:41.265Z,94.11
2022-08-17T00:39:41.443Z,94.11
2022-08-17T00:40:44.220Z,94.21
2022-08-17T00:41:33.249Z,94.21
2022-08-17T00:42:39.376Z,94.42
2022-08-17T00:44:53.195Z,95.22
2022-08-17T00:46:02.112Z,94.96
2022-08-17T00:46:53.012Z,95.07
2022-08-17T00:49:09.331Z,95.37
2022-08-17T00:50:17.705Z,95.37
2022-08-17T00:51:16.357Z,95.57
2022-08-17T00:52:10.713Z,95.57
2022-08-17T00:53:17.800Z,95.67
2022-08-17T00:54:16.291Z,95.67
2022-08-17T00:55:09.537Z,95.37
2022-08-17T00:56:16.848Z,94.76
2022-08-17T00:57:18.481Z,94.46
2022-08-17T00:58:09.104Z,94.66
2022-08-17T00:59:16.271Z,94.76
2022-08-17T01:00:18.101Z,94.81
2022-08-17T01:01:09.132Z,95.11
2022-08-17T01:02:16.213Z,95.31
2022-08-17T01:03:09.126Z,95.47
2022-08-17T01:04:16.234Z,95.78
2022-08-17T01:05:16.580Z,96.08
2022-08-17T01:06:08.987Z,95.87
2022-08-17T01:07:08.936Z,95.67
2022-08-17T01:08:08.933Z,95.17
2022-08-17T01:09:08.875Z,95.07
2022-08-17T01:11:00.039Z,94.76
2022-08-17T01:11:09.907Z,94.86
2022-08-17T01:12:08.915Z,95.27
2022-08-17T01:13:08.797Z,95.37
2022-08-17T01:14:08.817Z,95.98
2022-08-17T01:15:08.805Z,96.28
2022-08-17T01:16:09.252Z,96.42
2022-08-17T01:17:08.788Z,96.78
2022-08-17T01:18:08.765Z,96.89
2022-08-17T01:19:08.767Z,96.98
2022-08-17T01:20:08.725Z,96.89
2022-08-17T01:21:08.737Z,96.69
2022-08-17T01:22:09.131Z,96.89
2022-08-17T01:23:08.718Z,96.89
2022-08-17T01:24:08.694Z,97.09
2022-08-17T01:25:08.665Z,97.09
2022-08-17T01:26:08.682Z,97.39
2022-08-17T01:27:10.081Z,97.69
2022-08-17T01:28:09.047Z,97.49
2022-08-17T01:29:08.594Z,97.29
2022-08-17T01:30:57.252Z,96.98
2022-08-17T01:31:09.648Z,96.69
2022-08-17T01:32:08.604Z,96.53
2022-08-17T01:33:08.573Z,96.42
2022-08-17T01:34:08.959Z,96.33
2022-08-17T01:35:08.552Z,96.02
2022-08-17T01:36:08.593Z,95.82
2022-08-17T01:37:08.542Z,96.02
2022-08-17T01:38:08.505Z,96.22
2022-08-17T01:39:08.846Z,96.73
2022-08-17T01:40:08.597Z,96.73
2022-08-17T01:41:08.443Z,96.93
2022-08-17T01:42:08.472Z,96.93
2022-08-17T01:43:08.457Z,97.03
2022-08-17T01:44:08.850Z,97.24
2022-08-17T01:45:08.404Z,97.64
2022-08-17T01:46:08.431Z,97.74
2022-08-17T01:47:08.400Z,97.85
2022-08-17T01:48:08.361Z,97.64
2022-08-17T01:49:08.757Z,97.34
2022-08-17T01:50:08.350Z,96.98
2022-08-17T01:51:08.333Z,96.67
2022-08-17T01:52:08.318Z,96.37
2022-08-17T01:53:08.720Z,96.47
2022-08-17T01:54:08.332Z,96.57
2022-08-17T01:55:08.284Z,97.08
2022-08-17T01:56:08.270Z,97.58
2022-08-17T01:57:08.319Z,97.38
2022-08-17T01:58:08.628Z,97.18
2022-08-17T01:59:08.248Z,97.38
2022-08-17T02:00:08.231Z,97.58
2022-08-17T02:01:08.243Z,97.49
2022-08-17T02:02:08.185Z,97.49
2022-08-17T02:03:08.500Z,97.49
2022-08-17T02:04:08.158Z,97.49
2022-08-17T02:05:08.149Z,97.79
2022-08-17T02:06:27.898Z,97.58
2022-08-17T02:07:09.108Z,97.49
2022-08-17T02:08:08.586Z,97.69
2022-08-17T02:09:09.097Z,97.58
2022-08-17T02:10:20.352Z,97.63
2022-08-17T02:11:11.696Z,97.83
2022-08-17T02:12:37.595Z,98.14
2022-08-17T02:13:09.386Z,98.44
2022-08-17T02:14:08.028Z,98.50
2022-08-17T02:15:07.992Z,98.54
2022-08-17T02:16:07.990Z,98.54
2022-08-17T02:17:08.041Z,98.54
2022-08-17T02:18:08.406Z,98.54
2022-08-17T02:19:08.024Z,98.44
2022-08-17T02:20:07.949Z,98.34
2022-08-17T02:21:07.946Z,98.54
2022-08-17T02:22:08.794Z,98.54
2022-08-17T02:23:08.347Z,98.65
2022-08-17T02:24:07.894Z,98.65
2022-08-17T02:25:07.895Z,98.70
2022-08-17T02:26:07.906Z,98.90
2022-08-17T02:27:08.225Z,98.90
2022-08-17T02:28:07.877Z,98.90
2022-08-17T02:29:07.841Z,98.80
2022-08-17T02:30:59.779Z,98.70
2022-08-17T02:31:08.841Z,98.70
2022-08-17T02:32:15.417Z,98.60
2022-08-17T02:33:15.267Z,98.60
2022-08-17T02:34:07.881Z,98.60
2022-08-17T02:35:07.742Z,98.50
2022-08-17T02:36:07.766Z,98.50
2022-08-17T02:37:15.314Z,98.50
2022-08-17T02:38:07.744Z,98.39
2022-08-17T02:39:07.685Z,98.29
2022-08-17T02:40:14.915Z,98.19
2022-08-17T02:41:07.674Z,98.09
2022-08-17T02:42:15.183Z,97.99
2022-08-17T02:43:07.642Z,97.89
2022-08-17T02:44:07.639Z,97.74
2022-08-17T02:45:07.642Z,97.54
2022-08-17T02:46:07.637Z,97.44
2022-08-17T02:47:07.940Z,97.44
2022-08-17T02:48:07.598Z,97.34
2022-08-17T02:49:07.569Z,97.14
2022-08-17T02:50:07.561Z,97.03
2022-08-17T02:51:07.559Z,97.14
2022-08-17T02:52:07.532Z,97.18
2022-08-17T02:53:08.183Z,97.18
2022-08-17T02:54:41.031Z,97.38
2022-08-17T02:55:08.512Z,97.38
2022-08-17T02:56:07.489Z,97.28
2022-08-17T02:57:07.478Z,97.38
2022-08-17T02:58:07.479Z,97.49
2022-08-17T02:59:07.878Z,97.58
2022-08-17T03:00:07.446Z,97.58
2022-08-17T03:01:07.419Z,97.69
2022-08-17T03:02:07.497Z,97.69
2022-08-17T03:03:07.398Z,97.69
2022-08-17T03:04:07.397Z,97.49
2022-08-17T03:05:07.859Z,97.58
2022-08-17T03:06:07.398Z,97.58
2022-08-17T03:07:07.510Z,97.49
2022-08-17T03:08:07.352Z,97.58
2022-08-17T03:09:08.577Z,97.73
2022-08-17T03:10:07.377Z,97.89
2022-08-17T03:11:07.700Z,97.89
2022-08-17T03:12:07.295Z,97.94
2022-08-17T03:13:07.252Z,97.89
2022-08-17T03:14:07.264Z,97.83
2022-08-17T03:15:07.247Z,97.83
2022-08-17T03:16:07.575Z,97.69
2022-08-17T03:17:07.195Z,97.79
2022-08-17T03:18:07.222Z,97.99
2022-08-17T03:19:08.172Z,97.99
2022-08-17T03:20:07.207Z,97.89
2022-08-17T03:21:07.145Z,97.89
2022-08-17T03:22:35.614Z,97.79
2022-08-17T03:23:08.135Z,97.58
2022-08-17T03:24:09.061Z,97.49
2022-08-17T03:25:10.597Z,96.98
2022-08-17T03:26:07.106Z,96.57
2022-08-17T03:27:08.583Z,96.47
2022-08-17T03:28:07.081Z,96.27
2022-08-17T03:29:07.065Z,96.27
2022-08-17T03:30:07.054Z,96.17
2022-08-17T03:31:07.013Z,96.07
2022-08-17T03:32:07.019Z,95.86
2022-08-17T03:33:11.339Z,95.76
2022-08-17T03:34:11.912Z,95.66
2022-08-17T03:35:06.989Z,95.66
2022-08-17T03:36:06.972Z,95.66
2022-08-17T03:37:07.024Z,95.66
2022-08-17T03:38:07.343Z,95.56
2022-08-17T03:39:06.933Z,95.56
2022-08-17T03:40:06.979Z,95.56
2022-08-17T03:41:06.922Z,95.36
2022-08-17T03:42:06.900Z,95.36
2022-08-17T03:43:07.222Z,95.36
2022-08-17T03:44:06.878Z,95.11
2022-08-17T03:45:06.859Z,95.11
2022-08-17T03:46:11.099Z,95.01
2022-08-17T03:47:07.830Z,95.01
2022-08-17T03:48:07.263Z,95.01
2022-08-17T03:49:06.822Z,94.91
2022-08-17T03:50:10.392Z,94.91
2022-08-17T03:51:08.517Z,95.01
2022-08-17T03:52:06.777Z,95.06
2022-08-17T03:53:07.190Z,95.11
2022-08-17T03:54:06.739Z,95.26
2022-08-17T03:55:06.723Z,95.36
2022-08-17T03:56:06.708Z,95.46
2022-08-17T03:57:06.720Z,95.56
2022-08-17T03:58:07.998Z,95.56
2022-08-17T03:59:07.131Z,95.56
2022-08-17T04:00:08.369Z,95.46
2022-08-17T04:01:06.726Z,95.36
2022-08-17T04:02:14.857Z,95.56
2022-08-17T04:03:15.178Z,95.56
2022-08-17T04:04:07.066Z,95.46
2022-08-17T04:05:06.611Z,95.56
2022-08-17T04:06:06.867Z,95.46
2022-08-17T04:07:06.626Z,95.46
2022-08-17T04:08:06.580Z,95.36
2022-08-17T04:09:06.563Z,95.36
2022-08-17T04:10:06.846Z,95.15
2022-08-17T04:11:06.526Z,95.11
2022-08-17T04:12:06.540Z,95.15
2022-08-17T04:13:06.506Z,95.26
2022-08-17T04:14:06.876Z,95.26
2022-08-17T04:15:06.475Z,95.36
2022-08-17T04:16:06.535Z,95.36
2022-08-17T04:17:06.456Z,95.46
2022-08-17T04:18:07.557Z,95.56
2022-08-17T04:19:06.783Z,95.56
2022-08-17T04:20:06.425Z,95.56
2022-08-17T04:21:06.413Z,95.56
2022-08-17T04:22:06.404Z,95.36
2022-08-17T04:23:06.384Z,95.15
2022-08-17T04:24:06.855Z,94.95
2022-08-17T04:25:06.363Z,94.85
2022-08-17T04:26:06.345Z,94.85
2022-08-17T04:27:06.318Z,94.85
2022-08-17T04:28:15.793Z,94.75
2022-08-17T04:29:07.726Z,94.75
2022-08-17T04:30:06.276Z,94.55
2022-08-17T04:31:06.276Z,94.65
2022-08-17T04:32:06.277Z,94.75
2022-08-17T04:33:07.343Z,94.75
2022-08-17T04:34:06.669Z,94.85
2022-08-17T04:35:06.240Z,94.65
2022-08-17T04:36:06.218Z,94.65
2022-08-17T04:37:06.192Z,94.75
2022-08-17T04:38:06.186Z,94.75
2022-08-17T04:39:06.168Z,94.75
2022-08-17T04:40:06.556Z,94.55
2022-08-17T04:41:06.165Z,94.45
2022-08-17T04:42:06.202Z,94.45
2022-08-17T04:43:06.122Z,94.35
2022-08-17T04:44:06.161Z,94.45
2022-08-17T04:45:06.098Z,94.35
2022-08-17T04:46:06.432Z,94.45
2022-08-17T04:47:06.082Z,94.55
2022-08-17T04:48:06.071Z,94.45
2022-08-17T04:49:06.031Z,94.45
2022-08-17T04:50:06.042Z,94.45
2022-08-17T04:51:06.042Z,94.55
2022-08-17T04:52:06.360Z,94.55
2022-08-17T04:53:05.989Z,94.45
2022-08-17T04:54:06.026Z,94.45
2022-08-17T04:55:05.986Z,94.35
2022-08-17T04:56:05.985Z,94.24
2022-08-17T04:57:05.989Z,94.35
2022-08-17T04:58:06.367Z,94.24
2022-08-17T04:59:05.929Z,94.10
2022-08-17T05:00:06.064Z,94.00
2022-08-17T05:01:06.087Z,93.79
2022-08-17T05:02:05.877Z,93.59
2022-08-17T05:03:06.270Z,93.35
2022-08-17T05:04:21.466Z,93.04
2022-08-17T05:05:06.826Z,92.94
2022-08-17T05:06:05.841Z,92.64
2022-08-17T05:07:05.829Z,92.29
2022-08-17T05:08:05.800Z,92.29
2022-08-17T05:09:06.167Z,92.19
2022-08-17T05:10:05.776Z,91.58
2022-08-17T05:11:05.764Z,91.34
2022-08-17T05:12:05.725Z,91.03
2022-08-17T05:13:05.734Z,90.63
2022-08-17T05:14:05.696Z,89.88
2022-08-17T05:15:06.057Z,90.19
2022-08-17T05:16:05.713Z,89.78
2022-08-17T05:17:07.478Z,89.37
2022-08-17T05:18:06.706Z,88.93
2022-08-17T05:19:05.646Z,88.83
2022-08-17T05:20:05.624Z,88.83
2022-08-17T05:21:05.982Z,88.68
2022-08-17T05:22:05.659Z,87.48
2022-08-17T05:23:05.597Z,87.07
2022-08-17T05:24:08.025Z,86.93
2022-08-17T05:25:06.574Z,86.93
2022-08-17T05:26:06.304Z,86.73
2022-08-17T05:27:18.743Z,87.19
2022-08-17T05:28:05.865Z,86.79
2022-08-17T05:29:05.519Z,86.18
2022-08-17T05:30:05.542Z,86.08
2022-08-17T05:31:05.513Z,85.74
2022-08-17T05:32:38.805Z,85.84
2022-08-17T05:33:06.474Z,86.04
2022-08-17T05:34:05.463Z,85.84
2022-08-17T05:35:05.453Z,85.24
2022-08-17T05:36:05.467Z,84.74
2022-08-17T05:37:05.415Z,85.03
2022-08-17T05:38:05.843Z,84.74
2022-08-17T05:39:05.401Z,84.53
2022-08-17T05:40:05.405Z,84.83
2022-08-17T05:41:05.443Z,85.34
2022-08-17T05:42:05.813Z,85.34
2022-08-17T05:43:05.353Z,85.44
2022-08-17T05:44:05.649Z,85.54
2022-08-17T05:45:05.322Z,85.34
2022-08-17T05:46:05.345Z,85.44
2022-08-17T05:47:05.748Z,85.70
2022-08-17T05:48:05.293Z,85.50
2022-08-17T05:49:05.284Z,85.30
2022-08-17T05:50:09.747Z,85.40
2022-08-17T05:51:05.300Z,85.70
2022-08-17T05:52:05.222Z,85.36
2022-08-17T05:53:05.593Z,85.16
2022-08-17T05:54:05.183Z,85.36
2022-08-17T05:55:05.242Z,85.05
2022-08-17T05:56:05.192Z,84.11
2022-08-17T05:57:05.150Z,83.81
2022-08-17T05:58:05.173Z,82.70
2022-08-17T05:59:05.552Z,81.96
2022-08-17T06:00:05.113Z,80.55
2022-08-17T06:01:05.190Z,80.51
2022-08-17T06:02:05.099Z,79.91
2022-08-17T06:03:05.097Z,80.11
2022-08-17T06:04:05.066Z,79.10
2022-08-17T06:05:05.508Z,79.71
2022-08-17T06:06:05.027Z,79.91
2022-08-17T06:07:05.051Z,80.01
2022-08-17T06:08:05.026Z,79.77
2022-08-17T06:09:04.992Z,79.37
2022-08-17T06:10:05.524Z,78.93
2022-08-17T06:11:04.972Z,78.69
2022-08-17T06:12:04.990Z,78.49
2022-08-17T06:13:04.962Z,77.75
2022-08-17T06:14:04.930Z,77.55
2022-08-17T06:15:04.930Z,77.55
2022-08-17T06:16:05.324Z,77.21
2022-08-17T06:17:05.913Z,76.47
2022-08-17T06:18:04.928Z,75.10
2022-08-17T06:19:04.863Z,72.83
2022-08-17T06:20:05.312Z,70.96
2022-08-17T06:21:04.849Z,69.93
2022-08-17T06:22:04.941Z,68.89
2022-08-17T06:23:04.820Z,69.23
2022-08-17T06:24:04.834Z,69.32
2022-08-17T06:25:05.178Z,68.79
2022-08-17T06:26:05.779Z,67.86
2022-08-17T06:27:05.160Z,66.07
2022-08-17T06:28:05.409Z,66.14
2022-08-17T06:29:04.741Z,64.84
2022-08-17T06:30:05.115Z,64.58
2022-08-17T06:31:04.751Z,64.12
2022-08-17T06:32:04.717Z,62.16
2022-08-17T06:33:04.699Z,61.34
2022-08-17T06:34:05.366Z,60.98
2022-08-17T06:35:04.990Z,60.28
2022-08-17T06:36:09.241Z,61.34
2022-08-17T06:37:05.638Z,61.87
2022-08-17T06:38:04.629Z,61.57
2022-08-17T06:39:04.625Z,62.96
2022-08-17T06:40:04.667Z,63.36
2022-08-17T06:41:05.009Z,63.46
2022-08-17T06:42:04.599Z,63.56
2022-08-17T06:43:06.388Z,61.31
2022-08-17T06:44:04.539Z,61.78
2022-08-17T06:45:04.539Z,60.85
2022-08-17T06:46:04.536Z,59.93
2022-08-17T06:47:04.956Z,60.06
2022-08-17T06:48:04.546Z,60.88
2022-08-17T06:49:04.560Z,61.01
2022-08-17T06:50:05.573Z,62.13
2022-08-17T06:51:04.488Z,61.21
2022-08-17T06:52:04.553Z,60.91
2022-08-17T06:53:04.782Z,60.78
2022-08-17T06:54:04.487Z,61.08
2022-08-17T06:55:04.432Z,59.86
2022-08-17T06:56:04.418Z,59.66
2022-08-17T06:57:04.442Z,60.26
2022-08-17T06:58:05.225Z,61.28
2022-08-17T06:59:05.741Z,60.63
2022-08-17T07:00:04.530Z,58.84
2022-08-17T07:01:04.418Z,58.32
2022-08-17T07:02:04.381Z,57.46
2022-08-17T07:03:04.604Z,57.86
2022-08-17T07:04:06.755Z,58.19
2022-08-17T07:05:05.283Z,57.62
2022-08-17T07:06:04.281Z,57.82
2022-08-17T07:07:04.268Z,59.01
2022-08-17T07:08:04.256Z,57.40
2022-08-17T07:09:04.259Z,58.19
2022-08-17T07:10:04.297Z,57.67
2022-08-17T07:11:04.228Z,57.46
2022-08-17T07:12:04.198Z,56.35
2022-08-17T07:13:04.180Z,56.25
2022-08-17T07:14:04.167Z,56.13
2022-08-17T07:15:04.179Z,54.52
2022-08-17T07:16:04.730Z,54.32
2022-08-17T07:17:04.138Z,55.51
2022-08-17T07:18:04.128Z,55.30
2022-08-17T07:19:04.109Z,54.76
2022-08-17T07:20:04.108Z,53.64
2022-08-17T07:21:04.079Z,53.22
2022-08-17T07:22:04.684Z,52.41
2022-08-17T07:23:04.049Z,51.87
2022-08-17T07:24:04.048Z,50.90
2022-08-17T07:25:04.076Z,51.99
2022-08-17T07:26:04.016Z,51.67
2022-08-17T07:27:04.019Z,50.85
2022-08-17T07:28:06.100Z,50.63
2022-08-17T07:29:03.982Z,49.99
2022-08-17T07:30:09.506Z,48.10
2022-08-17T07:31:04.961Z,48.89
2022-08-17T07:32:03.968Z,47.92
2022-08-17T07:33:04.430Z,48.61
2022-08-17T07:34:03.933Z,47.91
2022-08-17T07:35:03.910Z,48.67
2022-08-17T07:36:03.891Z,47.96
2022-08-17T07:37:03.889Z,48.05
2022-08-17T07:38:03.889Z,46.68
2022-08-17T07:39:04.262Z,46.97
2022-08-17T07:40:15.981Z,47.66
2022-08-17T07:41:04.873Z,46.21
2022-08-17T07:42:03.814Z,49.08
2022-08-17T07:43:04.963Z,51.64
2022-08-17T07:44:04.202Z,52.29
2022-08-17T07:45:03.799Z,53.13
2022-08-17T07:46:03.810Z,54.17
2022-08-17T07:47:03.769Z,55.91
2022-08-17T07:48:03.749Z,56.95
2022-08-17T07:49:03.736Z,58.77
2022-08-17T07:50:04.151Z,58.15
2022-08-17T07:51:03.742Z,59.14
2022-08-17T07:52:24.221Z,59.14
2022-08-17T07:53:04.682Z,60.13
2022-08-17T07:54:13.467Z,59.44
2022-08-17T07:55:05.077Z,57.79
2022-08-17T07:56:03.641Z,57.97
2022-08-17T07:57:03.680Z,56.74
2022-08-17T07:58:03.626Z,56.23
2022-08-17T07:59:03.611Z,55.70
2022-08-17T08:00:03.901Z,55.80
2022-08-17T08:01:03.600Z,55.21
2022-08-17T08:02:03.661Z,55.41
2022-08-17T08:03:03.570Z,56.49
2022-08-17T08:04:03.551Z,56.02
2022-08-17T08:05:06.652Z,56.32
2022-08-17T08:06:03.540Z,56.35
2022-08-17T08:07:03.510Z,56.55
2022-08-17T08:08:03.514Z,57.14
2022-08-17T08:09:03.511Z,57.67
2022-08-17T08:10:03.842Z,57.97
2022-08-17T08:11:03.472Z,58.06
2022-08-17T08:12:03.451Z,58.16
2022-08-17T08:13:03.444Z,58.09
2022-08-17T08:14:03.439Z,58.09
2022-08-17T08:15:03.621Z,58.48
2022-08-17T08:16:03.408Z,57.89
2022-08-17T08:17:03.382Z,57.86
2022-08-17T08:18:03.377Z,57.76
2022-08-17T08:19:10.517Z,57.64
2022-08-17T08:20:51.555Z,57.24
2022-08-17T08:21:10.436Z,57.21
2022-08-17T08:22:10.481Z,57.31
2022-08-17T08:23:10.427Z,57.68
2022-08-17T08:24:10.444Z,57.18
2022-08-17T08:25:10.444Z,56.17
2022-08-17T08:26:13.159Z,55.68
2022-08-17T08:27:10.434Z,55.97
2022-08-17T08:28:10.407Z,55.65
2022-08-17T08:29:11.733Z,55.45
2022-08-17T08:30:10.353Z,55.15
2022-08-17T08:31:03.538Z,56.04
2022-08-17T08:32:03.224Z,56.24
2022-08-17T08:33:03.272Z,56.21
2022-08-17T08:34:03.208Z,55.30
2022-08-17T08:35:03.687Z,53.96
2022-08-17T08:36:03.605Z,53.74
2022-08-17T08:37:16.381Z,52.43
2022-08-17T08:38:04.152Z,52.33
2022-08-17T08:39:03.111Z,51.92
2022-08-17T08:40:03.199Z,52.61
2022-08-17T08:41:03.117Z,52.83
2022-08-17T08:42:03.170Z,52.04
2022-08-17T08:43:03.080Z,51.42
2022-08-17T08:44:03.050Z,51.03
2022-08-17T08:45:04.814Z,51.89
2022-08-17T08:46:03.455Z,54.06
2022-08-17T08:47:03.029Z,55.47
2022-08-17T08:48:05.553Z,56.49
2022-08-17T08:49:10.024Z,56.96
2022-08-17T08:50:05.105Z,57.26
2022-08-17T08:51:03.278Z,53.89
2022-08-17T08:52:02.960Z,54.36
2022-08-17T08:53:02.970Z,54.27
2022-08-17T08:54:02.931Z,53.57
2022-08-17T08:55:03.334Z,52.98
2022-08-17T08:56:02.900Z,53.38
2022-08-17T08:57:24.424Z,54.39
2022-08-17T08:58:03.889Z,53.60
2022-08-17T08:59:03.111Z,53.00
2022-08-17T09:00:02.886Z,53.11
2022-08-17T09:01:03.326Z,54.22
2022-08-17T09:02:02.833Z,54.52
2022-08-17T09:03:02.814Z,54.71
2022-08-17T09:04:19.577Z,54.61
2022-08-17T09:05:15.564Z,54.81
2022-08-17T09:06:03.788Z,54.84
2022-08-17T09:07:02.770Z,55.85
2022-08-17T09:08:02.772Z,56.68
2022-08-17T09:09:02.761Z,56.60
2022-08-17T09:10:03.089Z,57.72
2022-08-17T09:11:02.729Z,58.34
2022-08-17T09:12:03.817Z,59.04
2022-08-17T09:13:09.603Z,59.86
2022-08-17T09:14:03.672Z,59.83
2022-08-17T09:15:02.989Z,59.93
2022-08-17T09:16:02.661Z,59.14
2022-08-17T09:17:02.652Z,59.23
2022-08-17T09:18:59.068Z,58.91
2022-08-17T09:19:04.862Z,58.42
2022-08-17T09:20:03.635Z,57.69
2022-08-17T09:21:02.661Z,57.86
2022-08-17T09:22:02.640Z,56.68
2022-08-17T09:23:02.560Z,56.35
2022-08-17T09:24:02.578Z,56.35
2022-08-17T09:25:02.536Z,56.42
2022-08-17T09:26:02.743Z,56.23
2022-08-17T09:27:02.504Z,56.13
2022-08-17T09:28:02.494Z,56.23
2022-08-17T09:29:02.492Z,56.32
2022-08-17T09:30:02.489Z,56.62
2022-08-17T09:31:02.465Z,57.21
2022-08-17T09:32:02.871Z,56.89
2022-08-17T09:33:02.478Z,56.59
2022-08-17T09:34:02.426Z,56.40
2022-08-17T09:35:02.401Z,56.10
2022-08-17T09:36:02.409Z,55.63
2022-08-17T09:37:02.371Z,56.62
2022-08-17T09:38:02.419Z,56.85
2022-08-17T09:39:02.361Z,56.55
2022-08-17T09:40:02.500Z,56.15
2022-08-17T09:41:02.329Z,56.65
2022-08-17T09:42:02.334Z,56.74
2022-08-17T09:43:02.821Z,56.68
2022-08-17T09:44:02.314Z,57.20
2022-08-17T09:45:02.293Z,58.32
2022-08-17T09:46:02.281Z,58.02
2022-08-17T09:47:02.249Z,58.91
2022-08-17T09:48:02.251Z,58.51
2022-08-17T09:49:02.728Z,58.19
2022-08-17T09:50:02.233Z,57.40
2022-08-17T09:51:05.734Z,57.50
2022-08-17T09:52:02.199Z,57.29
2022-08-17T09:53:02.177Z,57.29
2022-08-17T09:54:34.928Z,57.00
2022-08-17T09:55:03.150Z,57.10
2022-08-17T09:56:02.159Z,57.89
2022-08-17T09:57:27.983Z,57.20
2022-08-17T09:58:03.129Z,58.39
2022-08-17T09:59:02.494Z,59.28
2022-08-17T10:00:02.121Z,59.28
2022-08-17T10:01:02.155Z,59.18
2022-08-17T10:02:02.066Z,58.59
2022-08-17T10:03:02.083Z,58.69
2022-08-17T10:04:02.068Z,58.78
2022-08-17T10:05:02.024Z,58.16
2022-08-17T10:06:02.045Z,59.84
2022-08-17T10:07:02.019Z,59.25
2022-08-17T10:08:02.469Z,61.23
2022-08-17T10:09:02.595Z,60.31
2022-08-17T10:10:02.039Z,59.12
2022-08-17T10:11:01.990Z,59.72
2022-08-17T10:12:01.940Z,61.40
2022-08-17T10:13:02.268Z,60.51
2022-08-17T10:14:01.959Z,59.52
2022-08-17T10:15:08.117Z,63.91
2022-08-17T10:16:02.981Z,65.49
2022-08-17T10:17:01.917Z,65.20
2022-08-17T10:18:02.331Z,65.39
2022-08-17T10:19:01.870Z,63.81
2022-08-17T10:20:01.981Z,64.60
2022-08-17T10:21:01.889Z,70.75
2022-08-17T10:22:32.704Z,69.20
2022-08-17T10:23:03.290Z,70.58
2022-08-17T10:24:01.809Z,69.59
2022-08-17T10:25:21.907Z,72.50
2022-08-17T10:26:02.798Z,70.02
2022-08-17T10:27:02.539Z,70.91
2022-08-17T10:28:02.200Z,72.00
2022-08-17T10:29:01.740Z,72.73
2022-08-17T10:30:01.764Z,71.94
2022-08-17T10:31:30.938Z,73.03
2022-08-17T10:32:02.699Z,72.93
2022-08-17T10:33:01.694Z,73.56
2022-08-17T10:34:02.044Z,74.65
2022-08-17T10:35:01.679Z,74.85
2022-08-17T10:36:01.705Z,76.93
2022-08-17T10:37:01.780Z,75.65
2022-08-17T10:38:01.705Z,73.27
2022-08-17T10:39:02.108Z,74.55
2022-08-17T10:40:01.662Z,75.55
2022-08-17T10:41:01.609Z,74.35
2022-08-17T10:42:01.571Z,75.05
2022-08-17T10:43:01.663Z,75.15
2022-08-17T10:44:40.321Z,75.05
2022-08-17T10:45:02.979Z,75.05
2022-08-17T10:46:17.100Z,75.25
2022-08-17T10:47:02.552Z,73.56
2022-08-17T10:48:05.789Z,73.96
2022-08-17T10:49:03.145Z,75.45
2022-08-17T10:50:01.470Z,75.95
2022-08-17T10:51:01.465Z,75.65
2022-08-17T10:52:01.455Z,76.04
2022-08-17T10:53:02.849Z,77.44
2022-08-17T10:54:01.420Z,75.31
2022-08-17T10:55:01.446Z,73.59
2022-08-17T10:56:01.411Z,74.58
2022-08-17T10:57:01.400Z,72.56
2022-08-17T10:58:01.406Z,70.94
2022-08-17T10:59:01.347Z,70.65
2022-08-17T11:00:01.361Z,68.13
2022-08-17T11:01:01.920Z,67.84
2022-08-17T11:02:01.369Z,66.65
2022-08-17T11:03:01.338Z,65.53
2022-08-17T11:04:01.328Z,64.84
2022-08-17T11:05:01.365Z,65.43
2022-08-17T11:06:01.320Z,63.22
2022-08-17T11:07:01.278Z,65.99
2022-08-17T11:08:01.270Z,62.77
2022-08-17T11:09:01.269Z,60.07
2022-08-17T11:10:01.270Z,59.84
2022-08-17T11:11:01.529Z,59.12
2022-08-17T11:12:01.209Z,56.65
2022-08-17T11:13:01.179Z,56.16
2022-08-17T11:14:01.206Z,56.26
2022-08-17T11:15:01.148Z,56.48
2022-08-17T11:16:06.125Z,58.86
2022-08-17T11:17:02.166Z,56.29
2022-08-17T11:18:01.347Z,55.27
2022-08-17T11:19:01.916Z,56.46
2022-08-17T11:20:01.167Z,55.77
2022-08-17T11:21:01.103Z,56.73
2022-08-17T11:22:01.080Z,54.55
2022-08-17T11:23:01.094Z,55.47
2022-08-17T11:24:01.059Z,56.06
2022-08-17T11:25:01.070Z,54.93
2022-08-17T11:26:01.436Z,54.86
2022-08-17T11:27:00.988Z,55.94
2022-08-17T11:28:01.010Z,57.53
2022-08-17T11:29:00.976Z,58.91
2022-08-17T11:30:02.517Z,58.12
2022-08-17T11:31:01.189Z,57.95
2022-08-17T11:32:00.929Z,56.79
2022-08-17T11:33:00.972Z,57.18
2022-08-17T11:34:00.924Z,57.68
2022-08-17T11:35:00.897Z,59.56
2022-08-17T11:36:00.932Z,59.89
2022-08-17T11:37:00.888Z,58.30
2022-08-17T11:38:00.899Z,58.63
2022-08-17T11:39:00.876Z,59.22
2022-08-17T11:40:01.104Z,59.42
2022-08-17T11:41:00.868Z,58.13
2022-08-17T11:42:00.820Z,57.71
2022-08-17T11:43:00.827Z,58.50
2022-08-17T11:44:01.990Z,59.79
2022-08-17T11:45:01.020Z,59.19
2022-08-17T11:46:00.767Z,59.09
2022-08-17T11:47:00.768Z,56.82
2022-08-17T11:48:26.513Z,58.20
2022-08-17T11:49:01.772Z,59.00
2022-08-17T11:50:01.157Z,59.52
2022-08-17T11:51:00.701Z,59.52
2022-08-17T11:52:01.200Z,61.10
2022-08-17T11:53:00.976Z,57.93
2022-08-17T11:54:30.633Z,59.32
2022-08-17T11:55:24.183Z,61.21
2022-08-17T11:56:01.651Z,60.91
2022-08-17T11:57:00.609Z,61.00
2022-08-17T11:58:00.731Z,59.75
2022-08-17T11:59:00.588Z,59.94
2022-08-17T12:00:00.828Z,60.44
2022-08-17T12:01:00.572Z,59.75
2022-08-17T12:02:00.558Z,60.05
2022-08-17T12:03:00.560Z,60.64
2022-08-17T12:04:00.552Z,60.44
2022-08-17T12:05:00.771Z,60.34
2022-08-17T12:06:00.506Z,61.10
2022-08-17T12:07:00.488Z,59.12
2022-08-17T12:08:00.476Z,59.03
2022-08-17T12:09:00.542Z,59.59
2022-08-17T12:10:01.007Z,59.56
2022-08-17T12:11:00.491Z,56.37
2022-08-17T12:12:13.645Z,58.22
2022-08-17T12:13:01.791Z,55.92
2022-08-17T12:14:01.849Z,55.99
2022-08-17T12:15:11.358Z,53.10
2022-08-17T12:16:01.383Z,54.02
2022-08-17T12:17:00.489Z,54.68
2022-08-17T12:18:00.358Z,53.69
2022-08-17T12:19:00.569Z,55.18
2022-08-17T12:20:00.340Z,52.91
2022-08-17T12:21:01.477Z,50.81
2022-08-17T12:22:00.309Z,50.81
2022-08-17T12:23:00.359Z,51.10
2022-08-17T12:24:00.723Z,49.33
2022-08-17T12:25:00.308Z,49.82
2022-08-17T12:26:00.347Z,49.52
2022-08-17T12:27:00.230Z,49.10
2022-08-17T12:28:06.430Z,48.59
2022-08-17T12:29:01.262Z,48.19
2022-08-17T12:30:00.213Z,48.69
2022-08-17T12:31:00.209Z,49.08
2022-08-17T12:32:00.209Z,47.63
2022-08-17T12:33:00.210Z,47.50
2022-08-17T12:34:01.079Z,47.50
2022-08-17T12:35:00.389Z,46.72
2022-08-17T12:36:00.349Z,47.50
2022-08-17T12:37:00.128Z,48.98
2022-08-17T12:38:00.148Z,47.85
2022-08-17T12:39:00.141Z,46.84
2022-08-17T12:40:01.344Z,46.65
2022-08-17T12:41:00.282Z,46.33
2022-08-17T12:42:02.522Z,46.75
2022-08-17T12:43:00.045Z,47.26
2022-08-17T12:44:00.101Z,46.87
2022-08-17T12:45:00.018Z,46.89
2022-08-17T12:46:00.130Z,46.52
2022-08-17T12:46:59.993Z,46.62
2022-08-17T12:48:00.034Z,47.70
2022-08-17T12:49:00.240Z,47.23
2022-08-17T12:49:59.960Z,46.74
2022-08-17T12:51:00.021Z,48.02
2022-08-17T12:52:00.119Z,46.91
2022-08-17T12:53:02.221Z,47.68
2022-08-17T12:53:59.939Z,47.66
2022-08-17T12:54:59.889Z,45.29
2022-08-17T12:55:59.872Z,46.50